Friday, October 31, 2014, 9:27 PM EDT

KDYL, Doylestown Airport

Location: Doylestown, PA, United States Lat: 40.333
Local Time: 9:27 PM EDT ( 1:27 GMT) Lon: -75.117
Time Zone: US/Eastern Elev: 393 ft

Show me the last for .
Show Decoded

2014-10-31 20:54 METAR KDYL 010054Z AUTO 03005KT 10SM OVC044 08/02 A2986 RMK AO2 SLP115 T00830022
                 $ =
2014-10-31 19:54 METAR KDYL 312354Z AUTO 02004KT 10SM BKN050 OVC070 08/02 A2988 RMK AO2 SLP123
                 T00830022 10100 20083 58002 $ =
2014-10-31 18:54 METAR KDYL 312254Z AUTO 02004KT 10SM BKN036 OVC046 08/02 A2989 RMK AO2 SLP126
                 T00830022 $ =
2014-10-31 17:54 METAR KDYL 312154Z AUTO 03004KT 10SM FEW043 OVC060 09/02 A2989 RMK AO2 SLP125
                 T00890017 $ =
2014-10-31 16:54 METAR KDYL 312054Z AUTO 04003KT 10SM OVC050 09/02 A2989 RMK AO2 SLP125 T00940017
                 55011 =
2014-10-31 15:54 METAR KDYL 311954Z AUTO 04007KT 10SM SCT041 OVC055 10/02 A2989 RMK AO2 SLP124
                 T01000017 =
2014-10-31 14:54 METAR KDYL 311854Z AUTO 05005KT 10SM BKN041 OVC055 09/02 A2990 RMK AO2 SLP130
                 T00940017 $ =
2014-10-31 13:54 METAR KDYL 311754Z AUTO 03006KT 10SM BKN043 OVC050 10/02 A2992 RMK AO2 SLP136
                 T01000022 10100 20017 58022 $ =
2014-10-31 12:54 METAR KDYL 311654Z AUTO VRB04KT 10SM OVC048 09/03 A2994 RMK AO2 SLP143 T00940028
                 $ =
2014-10-31 11:54 METAR KDYL 311554Z AUTO 35005KT 10SM OVC050 09/03 A2997 RMK AO2 SLP152 T00890028
                 $ =
2014-10-31 10:54 METAR KDYL 311454Z AUTO 03007KT 10SM CLR 09/02 A2999 RMK AO2 SLP159 T00890022
                 58011 $ =
2014-10-31 09:54 METAR KDYL 311354Z AUTO 02005KT 10SM CLR 05/02 A3000 RMK AO2 SLP164 T00500017 $
                 =
2014-10-31 08:54 METAR KDYL 311254Z AUTO 06003KT 10SM CLR 02/00 A3001 RMK AO2 SLP169 T00220000 $
                 =
2014-10-31 07:54 METAR KDYL 311154Z AUTO 00000KT 10SM CLR 02/00 A3002 RMK AO2 SLP171 T00170000
                 10022 20000 51004 $ =
2014-10-31 06:54 METAR KDYL 311054Z AUTO 05003KT 10SM CLR 02/M01 A3001 RMK AO2 SLP167 T00171006 $
                 =
2014-10-31 05:54 METAR KDYL 310954Z AUTO 00000KT 10SM CLR 01/00 A3002 RMK AO2 SLP169 T00110000 $
                 =
2014-10-31 04:54 METAR KDYL 310854Z AUTO 02003KT 10SM CLR 02/00 A3001 RMK AO2 SLP165 T00220000
                 58005 $ =
2014-10-31 02:54 METAR KDYL 310654Z AUTO 00000KT 10SM CLR 01/01 A3002 RMK AO2 SLP169 T00110006 $
                 =
2014-10-31 01:54 METAR KDYL 310554Z AUTO 00000KT 10SM CLR 02/01 A3002 RMK AO2 SLP169 T00220006
                 10072 20017 58003 $ =
2014-10-31 00:54 METAR KDYL 310454Z AUTO 00000KT 10SM CLR 02/01 A3003 RMK AO2 SLP171 T00170006
                 401440017 $ =
2014-10-30 23:54 METAR KDYL 310354Z AUTO 00000KT 10SM CLR 03/01 A3003 RMK AO2 SLP172 T00280006 $
                 =
2014-10-30 22:54 METAR KDYL 310254Z AUTO 00000KT 10SM CLR 03/01 A3003 RMK AO2 SLP172 T00330011
                 50002 $ =
2014-10-30 21:54 METAR KDYL 310154Z AUTO 00000KT 10SM CLR 05/01 A3003 RMK AO2 SLP173 T00500011 $
                 =

Support USWX by starting your Amazon purchase here.